• Join FlightAware (Why Join?)
  • Login
  • US Flag 
10:45PM EDT


 

Airport Tracker/Info


-or-


 

Live Flight TrackerFlight Track Log ✈ GJS3710 ✈ 30-Apr-2013 ✈ KORD - KALB

Flight Track Log - Related Links

Times and Time Zones

All times are in EDT time to prevent confusion due to time zone crossing. See the GJS3710 flight status page for this flight to view local times or setup timezone preferences in your user account.

Time Position Orientation Groundspeed Altitude Reporting Facility
EDT Latitude Longitude Course Direction KTS MPH feet Rate Location/Type
09:40PM 41.9500 -87.9000 66° East 142 163 1,900  Level Chicago TRACON
09:41PM 41.9500 -87.8333 90° East 244 281 3,600 2,040 Climbing Chicago TRACON
09:42PM 42.1064 -87.5135 63° Northeast  Level FlightAware Approximate
09:42PM 41.9500 -87.7167 90° East 296 341 6,200  Level Chicago TRACON
09:43PM 42.1561 -87.3819 66° East  Level FlightAware Approximate
09:43PM 42.0000 -87.6167 56° Northeast 316 364 9,100  Level Chicago TRACON
09:44PM 42.2010 -87.2472 66° East  Level FlightAware Approximate
09:45PM 42.2459 -87.1124 66° East  Level FlightAware Approximate
09:45PM 42.1203 -87.3797 56° Northeast 338 389 14,600  Level Chicago Center
09:46PM 42.1792 -87.2617 56° Northeast 374 430 16,600 1,860 Climbing Chicago Center
09:47PM 42.2028 -87.1244 77° East 388 447 18,500 1,860 Climbing Chicago Center
09:48PM 42.1950 -86.9747 94° East 398 458 20,400 1,800 Climbing Chicago Center
09:49PM 42.1842 -86.8256 96° East 401 461 22,200 1,740 Climbing Chicago Center
09:50PM 42.1708 -86.6592 96° East 415 478 24,000 1,500 Climbing Chicago Center
09:51PM 42.1600 -86.5000 95° East 424 488 25,300 1,260 Climbing Chicago Center
09:52PM 42.1461 -86.3375 97° East 434 499 26,600 1,080 Climbing Chicago Center
09:53PM 42.1319 -86.1700 96° East 447 514 27,600 1,080 Climbing Chicago Center
09:54PM 42.1353 -85.9617 89° East 464 534 28,800 1,020 Climbing Chicago Center
09:56PM 42.1475 -85.8039 84° East 466 536 29,700 900 Climbing Chicago Center
09:57PM 42.1625 -85.6303 83° East 469 540 30,700 960 Climbing Chicago Center
09:58PM 42.1764 -85.4547 84° East 473 544 31,700 960 Climbing Chicago Center
09:59PM 42.1892 -85.2800 84° East 471 542 32,700 960 Climbing Chicago Center
09:59PM 42.1981 -85.2142 80° East 477 549 33,000 960 Climbing Cleveland Center
10:00PM 42.2111 -85.0411 84° East 477 549 34,000 960 Climbing Cleveland Center
10:01PM 42.2242 -84.8653 84° East 470 541 35,000 480 Climbing Cleveland Center
10:02PM 42.2367 -84.6922 84° East 470 541 35,000  Level Cleveland Center
10:03PM 42.2456 -84.4964 86° East 470 541 35,000  Level Cleveland Center
10:04PM 42.2578 -84.3203 85° East 470 541 35,000  Level Cleveland Center
10:05PM 42.2694 -84.1469 85° East 470 541 35,000  Level Cleveland Center
10:06PM 42.2811 -83.9681 85° East 470 541 35,000  Level Cleveland Center
10:07PM 42.2925 -83.7917 85° East 470 541 35,000 300 Level Cleveland Center
10:08PM 42.3025 -83.6517 84° East 470 541 35,600 720 Climbing Cleveland Center
10:09PM 42.3139 -83.4558 85° East 470 541 36,500 660 Climbing Cleveland Center
10:10PM 42.3242 -83.2822 85° East 463 533 37,000 120 Climbing Cleveland Center
10:12PM 42.3444 -82.9344 85° East 461 531 37,000  Level Cleveland Center
10:13PM 42.3542 -82.7606 86° East 461 531 37,000  Level Cleveland Center
10:14PM 42.3614 -82.5839 87° East 461 531 37,000  Level Cleveland Center
10:15PM 42.3706 -82.4128 86° East 461 531 37,000  Level Cleveland Center
10:16PM 42.3794 -82.2358 86° East 461 531 37,000  Level Cleveland Center
10:18PM 42.3989 -81.8708 86° East 455 524 37,000  Level Cleveland Center
10:19PM 42.4089 -81.6967 85° East 461 531 37,000  Level Cleveland Center
10:20PM 42.4147 -81.5225 87° East 462 532 37,000  Level Cleveland Center
10:21PM 42.4222 -81.3567 86° East 462 532 37,000  Level Cleveland Center
10:22PM 42.4272 -81.1964 88° East 462 532 37,000  Level Cleveland Center
10:23PM 42.4364 -81.0219 86° East 462 532 37,000  Level Cleveland Center
10:24PM 42.4433 -80.8506 87° East 462 532 37,000  Level Cleveland Center
10:25PM 42.4497 -80.6761 87° East 462 532 37,000  Level Cleveland Center
10:26PM 42.4539 -80.5017 88° East 462 532 37,000  Level Cleveland Center
10:27PM 42.4600 -80.3300 87° East 462 532 37,000  Level Cleveland Center
10:28PM 42.4656 -80.1356 88° East 462 532 37,000  Level Cleveland Center
10:29PM 42.4753 -79.9667 85° East 457 526 37,000  Level Cleveland Center
10:30PM 42.4783 -79.7922 89° East 457 526 37,000  Level Cleveland Center
10:31PM 42.4853 -79.6175 87° East 457 526 37,000  Level Cleveland Center
10:32PM 42.4900 -79.4456 88° East 457 526 37,000  Level Cleveland Center
10:33PM 42.4944 -79.2739 88° East 457 526 37,000  Level Cleveland Center
10:34PM 42.5050 -79.0989 85° East 457 526 37,000  Level Cleveland Center
10:35PM 42.5172 -78.9269 84° East 463 533 37,000  Level Cleveland Center
10:36PM 42.5269 -78.7519 86° East 463 533 37,000  Level Cleveland Center
10:37PM 42.5389 -78.5853 84° East 463 533 37,000  Level Cleveland Center
10:38PM 42.5503 -78.4131 85° East 463 533 37,000  Level Cleveland Center
10:39PM 42.5594 -78.2464 86° East 458 527 37,000  Level Cleveland Center
10:40PM 42.5706 -78.0767 85° East 458 527 37,000  Level Cleveland Center
10:41PM 42.5794 -77.9128 86° East 453 521 37,000  Level Cleveland Center
10:43PM 42.5989 -77.5803 85° East 441 507 37,000  Level Boston Center
10:44PM 42.6086 -77.4089 86° East 441 507 37,000 -960 Level Boston Center
10:45PM 42.6178 -77.2431 86° East 441 507 35,100 -2,100 Descending Boston Center
10:46PM 42.6269 -77.0717 86° East 441 507 32,900 -2,340 Descending Boston Center
10:47PM 42.6361 -76.8944 86° East 452 520 30,500 -1,980 Descending Boston Center
10:48PM 42.6450 -76.7169 86° East 464 534 29,000 -780 Descending Boston Center
10:49PM 42.6522 -76.5764 86° East 464 534 29,000  Level Boston Center
10:50PM 42.6619 -76.3681 86° East 459 528 29,000 -60 Level Boston Center
10:51PM 42.6719 -76.1906 86° East 459 528 28,900 -1,260 Descending Boston Center
10:53PM 42.6847 -75.8553 87° East 453 521 25,300 -1,920 Descending Boston Center
10:54PM 42.6914 -75.6944 87° East 441 507 23,300 -1,980 Descending Boston Center
10:55PM 42.6981 -75.5367 87° East 427 491 21,400 -1,980 Descending Boston Center
10:56PM 42.7019 -75.3842 88° East 410 472 19,400 -1,860 Descending Boston Center
10:57PM 42.7081 -75.2289 87° East 405 466 17,700 -1,800 Descending Boston Center
10:58PM 42.7139 -75.0653 87° East 400 460 15,800 -1,740 Descending Boston Center
10:59PM 42.7172 -74.9158 88° East 400 460 14,300 -1,500 Descending Boston Center
11:00PM 42.7225 -74.7661 87° East 400 460 12,900 -1,500 Descending Boston Center
11:01PM 42.7275 -74.6192 87° East 393 452 11,300 -1,140 Descending Boston Center
11:02PM 42.7336 -74.5233 85° East 369 425 11,000 -300 Descending Boston Center
11:02PM 42.7322 -74.4839 93° East 370 426 11,000  Level Boston Center
11:03PM 42.7336 -74.3961 89° East 367 422 11,000  Level Boston Center
11:03PM 42.7344 -74.3567 88° East 365 420 11,000  Level Boston Center
11:04PM 42.7381 -74.2550 87° East 371 427 11,000  Level Boston Center
11:04PM 42.7389 -74.2042 89° East 365 420 11,000 -120 Level Boston Center
11:05PM 42.7525 -74.1253 77° East 328 377 10,900 -420 Descending Boston Center
11:05PM 42.7592 -74.1028 68° East 337 388 10,600 -2,520 Descending Boston Center
11:06PM 42.7853 -74.0300 64° Northeast 266 306 8,400 -2,940 Descending Boston Center
11:06PM 42.7961 -73.9992 64° Northeast 290 334 7,700 -1,500 Descending Boston Center
11:07PM 42.8158 -73.9375 66° East 243 280 6,900 -1,440 Descending Boston Center
11:07PM 42.8264 -73.9150 57° Northeast 265 305 6,300 -2,460 Descending Boston Center
11:08PM 42.8394 -73.8672 70° East 192 221 4,400 -2,640 Descending Boston Center
11:08PM 42.8461 -73.8447 68° East 227 261 3,700 -2,340 Descending Boston Center
11:09PM 42.8256 -73.8103 129° Southeast 170 196 2,100 -540 Descending Boston Center
11:09PM 42.8700 -73.7717 32° Northeast 219 252 3,200 3,660 Climbing Boston Center